createdAt,value
2017-12-17T00:00:05.584Z,0.90
2017-12-17T00:02:33.348Z,0.80
2017-12-17T00:05:01.154Z,0.90
2017-12-17T00:07:29.001Z,0.90
2017-12-17T00:09:56.808Z,0.80
2017-12-17T00:12:25.305Z,0.80
2017-12-17T00:14:53.203Z,0.80
2017-12-17T00:17:20.982Z,0.90
2017-12-17T00:19:49.069Z,0.80
2017-12-17T00:22:16.767Z,0.80
2017-12-17T00:24:44.552Z,0.80
2017-12-17T00:27:12.248Z,0.80
2017-12-17T00:29:39.954Z,0.80
2017-12-17T00:32:07.849Z,0.80
2017-12-17T00:34:35.915Z,0.80
2017-12-17T00:37:03.596Z,0.80
2017-12-17T00:39:31.253Z,0.80
2017-12-17T00:41:58.963Z,0.80
2017-12-17T00:44:26.635Z,0.80
2017-12-17T00:46:54.287Z,0.80
2017-12-17T00:49:22.013Z,0.80
2017-12-17T00:51:49.649Z,0.80
2017-12-17T00:54:17.303Z,0.80
2017-12-17T00:56:45.008Z,0.80
2017-12-17T00:59:13.475Z,0.80
2017-12-17T01:01:41.160Z,0.80
2017-12-17T01:04:09.946Z,0.70
2017-12-17T01:06:38.940Z,0.60
2017-12-17T01:09:07.692Z,0.60
2017-12-17T01:11:35.396Z,0.60
2017-12-17T01:14:03.045Z,0.60
2017-12-17T01:16:31.480Z,0.50
2017-12-17T01:18:59.187Z,0.50
2017-12-17T01:21:27.622Z,0.50
2017-12-17T01:23:55.285Z,0.50
2017-12-17T01:26:22.998Z,0.40
2017-12-17T01:28:50.684Z,0.40
2017-12-17T01:31:18.289Z,0.40
2017-12-17T01:33:46.763Z,0.40
2017-12-17T01:36:14.440Z,0.40
2017-12-17T01:38:43.056Z,0.30
2017-12-17T01:41:11.692Z,0.30
2017-12-17T01:43:39.408Z,0.30
2017-12-17T01:46:07.152Z,0.30
2017-12-17T01:48:34.999Z,0.30
2017-12-17T01:51:03.451Z,0.40
2017-12-17T01:53:31.147Z,0.30
2017-12-17T01:55:58.959Z,0.30
2017-12-17T01:58:26.699Z,0.30
2017-12-17T02:00:55.135Z,0.30
2017-12-17T02:03:22.844Z,0.30
2017-12-17T02:05:50.521Z,0.20
2017-12-17T02:08:18.223Z,0.20
2017-12-17T02:10:46.855Z,0.10
2017-12-17T02:13:14.553Z,0.10
2017-12-17T02:15:42.303Z,0.00
2017-12-17T02:18:10.060Z,0.00
2017-12-17T02:20:38.448Z,0.00
2017-12-17T02:23:07.143Z,-0.10
2017-12-17T02:25:36.314Z,-0.10
2017-12-17T02:28:04.529Z,-0.10
2017-12-17T02:30:32.847Z,-0.10
2017-12-17T02:33:00.634Z,-0.10
2017-12-17T02:35:28.330Z,-0.10
2017-12-17T02:37:56.084Z,-0.10
2017-12-17T02:40:24.603Z,-0.10
2017-12-17T02:42:52.387Z,-0.20
2017-12-17T02:45:20.095Z,-0.10
2017-12-17T02:47:47.837Z,-0.10
2017-12-17T02:50:16.319Z,0.00
2017-12-17T02:52:44.039Z,0.00
2017-12-17T02:55:11.870Z,0.00
2017-12-17T02:57:39.571Z,0.10
2017-12-17T03:00:07.295Z,0.10
2017-12-17T03:02:35.050Z,0.20
2017-12-17T03:05:02.750Z,0.20
2017-12-17T03:07:30.437Z,0.20
2017-12-17T03:09:58.290Z,0.20
2017-12-17T03:12:25.999Z,0.30
2017-12-17T03:14:53.766Z,0.30
2017-12-17T03:17:21.511Z,0.30
2017-12-17T03:19:49.951Z,0.30
2017-12-17T03:22:17.650Z,0.30
2017-12-17T03:24:46.244Z,0.30
2017-12-17T03:27:13.943Z,0.30
2017-12-17T03:29:41.633Z,0.30
2017-12-17T03:32:09.394Z,0.30
2017-12-17T03:34:37.134Z,0.30
2017-12-17T03:37:04.810Z,0.30
2017-12-17T03:39:32.545Z,0.30
2017-12-17T03:42:01.167Z,0.30
2017-12-17T03:44:28.846Z,0.30
2017-12-17T03:46:57.388Z,0.30
2017-12-17T03:49:25.080Z,0.30
2017-12-17T03:51:53.525Z,0.40
2017-12-17T03:54:21.342Z,0.40
2017-12-17T03:56:49.064Z,0.40
2017-12-17T03:59:16.760Z,0.40
2017-12-17T04:01:44.601Z,0.40
2017-12-17T04:04:12.302Z,0.40
2017-12-17T04:06:39.995Z,0.40
2017-12-17T04:09:07.726Z,0.40
2017-12-17T04:11:35.524Z,0.40
2017-12-17T04:14:03.218Z,0.40
2017-12-17T04:16:31.814Z,0.40
2017-12-17T04:18:59.499Z,0.40
2017-12-17T04:21:27.184Z,0.50
2017-12-17T04:23:54.908Z,0.50
2017-12-17T04:26:22.602Z,0.50
2017-12-17T04:28:50.285Z,0.50
2017-12-17T04:31:18.229Z,0.50
2017-12-17T04:33:45.928Z,0.50
2017-12-17T04:36:14.403Z,0.50
2017-12-17T04:38:42.231Z,0.40
2017-12-17T04:41:09.928Z,0.40
2017-12-17T04:43:37.591Z,0.40
2017-12-17T04:46:06.119Z,0.40
2017-12-17T04:48:33.909Z,0.40
2017-12-17T04:51:01.593Z,0.40
2017-12-17T04:53:29.376Z,0.30
2017-12-17T04:55:57.820Z,0.40
2017-12-17T04:58:25.498Z,0.30
2017-12-17T05:00:54.078Z,0.40
2017-12-17T05:03:21.764Z,0.40
2017-12-17T05:05:49.469Z,0.40
2017-12-17T05:08:17.264Z,0.50
2017-12-17T05:10:45.722Z,0.50
2017-12-17T05:13:13.494Z,0.50
2017-12-17T05:15:41.234Z,0.50
2017-12-17T05:18:08.923Z,0.50
2017-12-17T05:20:36.605Z,0.40
2017-12-17T05:23:05.106Z,0.40
2017-12-17T05:25:32.798Z,0.40
2017-12-17T05:28:00.504Z,0.40
2017-12-17T05:30:29.050Z,0.40
2017-12-17T05:32:56.735Z,0.40
2017-12-17T05:35:25.197Z,0.40
2017-12-17T05:37:52.917Z,0.40
2017-12-17T05:40:20.640Z,0.40
2017-12-17T05:42:49.114Z,0.40
2017-12-17T05:45:16.835Z,0.40
2017-12-17T05:47:44.525Z,0.40
2017-12-17T05:50:12.229Z,0.40
2017-12-17T05:52:39.972Z,0.40
2017-12-17T05:55:08.430Z,0.40
2017-12-17T05:57:36.108Z,0.40
2017-12-17T06:00:04.619Z,0.50
2017-12-17T06:02:32.308Z,0.40
2017-12-17T06:04:59.995Z,0.40
2017-12-17T06:07:27.723Z,0.40
2017-12-17T06:09:55.440Z,0.30
2017-12-17T06:12:24.050Z,0.30
2017-12-17T06:14:51.796Z,0.30
2017-12-17T06:17:19.498Z,0.30
2017-12-17T06:19:47.200Z,0.20
2017-12-17T06:22:15.763Z,0.30
2017-12-17T06:24:43.463Z,0.30
2017-12-17T06:27:11.243Z,0.30
2017-12-17T06:29:39.007Z,0.30
2017-12-17T06:32:06.703Z,0.30
2017-12-17T06:34:34.403Z,0.30
2017-12-17T06:37:02.135Z,0.30
2017-12-17T06:39:29.877Z,0.30
2017-12-17T06:41:57.577Z,0.30
2017-12-17T06:44:25.303Z,0.30
2017-12-17T06:46:53.002Z,0.30
2017-12-17T06:49:21.438Z,0.30
2017-12-17T06:51:49.166Z,0.30
2017-12-17T06:54:16.823Z,0.30
2017-12-17T06:56:44.478Z,0.30
2017-12-17T06:59:12.423Z,0.30
2017-12-17T07:01:40.865Z,0.20
2017-12-17T07:04:08.555Z,0.20
2017-12-17T07:06:37.082Z,0.20
2017-12-17T07:09:04.780Z,0.20
2017-12-17T07:11:32.525Z,0.10
2017-12-17T07:14:00.335Z,0.10
2017-12-17T07:16:28.804Z,0.10
2017-12-17T07:18:57.283Z,0.10
2017-12-17T07:21:25.795Z,0.20
2017-12-17T07:23:53.489Z,0.20
2017-12-17T07:26:21.183Z,0.20
2017-12-17T07:28:49.712Z,0.30
2017-12-17T07:31:17.398Z,0.30
2017-12-17T07:33:45.060Z,0.40
2017-12-17T07:36:12.811Z,0.40
2017-12-17T07:38:40.523Z,0.40
2017-12-17T07:41:08.260Z,0.30
2017-12-17T07:43:36.171Z,0.40
2017-12-17T07:46:03.836Z,0.40
2017-12-17T07:48:31.496Z,0.40
2017-12-17T07:50:59.359Z,0.40
2017-12-17T07:53:27.046Z,0.50
2017-12-17T07:55:54.728Z,0.50
2017-12-17T07:58:22.512Z,0.50
2017-12-17T08:00:50.960Z,0.50
2017-12-17T08:03:18.642Z,0.50
2017-12-17T08:05:46.572Z,0.50
2017-12-17T08:08:14.288Z,0.60
2017-12-17T08:10:42.760Z,0.50
2017-12-17T08:13:11.241Z,0.60
2017-12-17T08:15:39.672Z,0.60
2017-12-17T08:18:07.345Z,0.60
2017-12-17T08:20:35.218Z,0.70
2017-12-17T08:23:02.903Z,0.70
2017-12-17T08:25:31.384Z,0.70
2017-12-17T08:27:59.869Z,0.70
2017-12-17T08:30:28.339Z,0.70
2017-12-17T08:32:56.791Z,0.80
2017-12-17T08:35:24.584Z,0.70
2017-12-17T08:37:53.030Z,0.90
2017-12-17T08:40:20.728Z,0.90
2017-12-17T08:42:49.268Z,0.90
2017-12-17T08:45:16.953Z,0.90
2017-12-17T08:47:44.636Z,1.00
2017-12-17T08:50:13.138Z,1.10
2017-12-17T08:52:40.834Z,1.10
2017-12-17T08:55:08.493Z,1.10
2017-12-17T08:57:36.287Z,1.10
2017-12-17T09:00:04.835Z,1.20
2017-12-17T09:02:32.515Z,1.20
2017-12-17T09:05:00.403Z,1.20
2017-12-17T09:07:28.932Z,1.30
2017-12-17T09:09:56.630Z,1.30
2017-12-17T09:12:26.476Z,1.30
2017-12-17T09:14:54.156Z,1.30
2017-12-17T09:17:22.640Z,1.30
2017-12-17T09:19:50.381Z,1.30
2017-12-17T09:22:18.094Z,1.30
2017-12-17T09:24:45.763Z,1.20
2017-12-17T09:27:13.578Z,1.20
2017-12-17T09:29:41.292Z,1.30
2017-12-17T09:32:09.022Z,1.20
2017-12-17T09:34:36.763Z,1.30
2017-12-17T09:37:04.458Z,1.30
2017-12-17T09:39:32.139Z,1.40
2017-12-17T09:42:00.647Z,1.50
2017-12-17T09:44:28.303Z,1.50
2017-12-17T09:46:55.971Z,1.50
2017-12-17T09:49:23.720Z,1.50
2017-12-17T09:51:51.429Z,1.50
2017-12-17T09:54:19.111Z,1.60
2017-12-17T09:56:46.847Z,1.60
2017-12-17T09:59:14.512Z,1.60
2017-12-17T10:01:42.207Z,1.60
2017-12-17T10:04:10.698Z,1.50
2017-12-17T10:06:39.157Z,1.50
2017-12-17T10:09:07.425Z,1.50
2017-12-17T10:11:35.249Z,1.50
2017-12-17T10:14:02.928Z,1.50
2017-12-17T10:16:30.627Z,1.50
2017-12-17T10:18:59.207Z,1.50
2017-12-17T10:21:27.658Z,1.50
2017-12-17T10:23:55.393Z,1.50
2017-12-17T10:26:23.137Z,1.40
2017-12-17T10:28:50.818Z,1.40
2017-12-17T10:31:18.516Z,1.30
2017-12-17T10:33:46.279Z,1.30
2017-12-17T10:36:13.982Z,1.40
2017-12-17T10:38:41.765Z,1.40
2017-12-17T10:41:09.664Z,1.40
2017-12-17T10:43:37.463Z,1.40
2017-12-17T10:46:05.911Z,1.30
2017-12-17T10:48:34.411Z,1.30
2017-12-17T10:51:02.835Z,1.10
2017-12-17T10:53:30.531Z,1.10
2017-12-17T10:55:58.276Z,1.00
2017-12-17T10:58:25.972Z,0.90
2017-12-17T11:00:54.437Z,0.90
2017-12-17T11:03:22.156Z,0.90
2017-12-17T11:05:49.804Z,0.90
2017-12-17T11:08:17.492Z,0.90
2017-12-17T11:10:45.208Z,0.90
2017-12-17T11:13:13.653Z,0.90
2017-12-17T11:15:41.343Z,0.90
2017-12-17T11:18:09.857Z,1.00
2017-12-17T11:20:37.527Z,1.00
2017-12-17T11:23:05.196Z,1.10
2017-12-17T11:25:32.923Z,1.10
2017-12-17T11:28:00.628Z,1.10
2017-12-17T11:30:28.317Z,1.00
2017-12-17T11:32:56.944Z,0.80
2017-12-17T11:35:24.652Z,0.80
2017-12-17T11:37:52.342Z,0.80
2017-12-17T11:40:20.094Z,0.70
2017-12-17T11:42:48.565Z,0.70
2017-12-17T11:45:17.031Z,0.80
2017-12-17T11:47:45.073Z,0.80
2017-12-17T11:50:12.811Z,0.90
2017-12-17T11:52:40.512Z,0.90
2017-12-17T11:55:08.245Z,1.00
2017-12-17T11:57:36.703Z,1.20
2017-12-17T12:00:04.393Z,1.20
2017-12-17T12:02:32.191Z,1.20
2017-12-17T12:04:59.875Z,1.30
2017-12-17T12:07:28.298Z,1.30
2017-12-17T12:09:56.115Z,1.30
2017-12-17T12:12:24.581Z,1.20
2017-12-17T12:14:53.053Z,1.10
2017-12-17T12:17:20.780Z,1.10
2017-12-17T12:19:48.493Z,1.10
2017-12-17T12:22:16.938Z,1.00
2017-12-17T12:24:44.684Z,1.00
2017-12-17T12:27:12.364Z,1.00
2017-12-17T12:29:40.044Z,1.00
2017-12-17T12:32:08.569Z,1.10
2017-12-17T12:34:36.251Z,1.10
2017-12-17T12:37:03.938Z,1.10
2017-12-17T12:39:31.691Z,1.10
2017-12-17T12:41:59.375Z,1.00
2017-12-17T12:44:27.819Z,1.00
2017-12-17T12:46:55.514Z,1.00
2017-12-17T12:49:23.201Z,1.00
2017-12-17T12:51:50.888Z,0.90
2017-12-17T12:54:18.651Z,0.90
2017-12-17T12:56:46.329Z,0.90
2017-12-17T12:59:13.998Z,1.00
2017-12-17T13:01:41.859Z,0.90
2017-12-17T13:04:09.627Z,0.90
2017-12-17T13:06:37.336Z,1.00
2017-12-17T13:09:05.669Z,1.00
2017-12-17T13:11:33.330Z,1.00
2017-12-17T13:14:01.006Z,1.00
2017-12-17T13:16:29.585Z,1.00
2017-12-17T13:18:58.187Z,1.00
2017-12-17T13:21:25.950Z,1.00
2017-12-17T13:23:53.679Z,1.00
2017-12-17T13:26:21.367Z,1.10
2017-12-17T13:28:49.791Z,1.00
2017-12-17T13:31:17.681Z,1.00
2017-12-17T13:33:45.415Z,1.00
2017-12-17T13:36:13.302Z,1.00
2017-12-17T13:38:41.166Z,1.00
2017-12-17T13:41:09.009Z,1.00
2017-12-17T13:43:36.734Z,1.00
2017-12-17T13:46:04.615Z,1.00
2017-12-17T13:48:33.233Z,1.00
2017-12-17T13:51:00.957Z,1.00
2017-12-17T13:53:28.718Z,1.00
2017-12-17T13:55:56.435Z,0.90
2017-12-17T13:58:24.829Z,0.90
2017-12-17T14:00:52.728Z,0.90
2017-12-17T14:03:20.538Z,0.90
2017-12-17T14:05:48.340Z,0.90
2017-12-17T14:08:16.108Z,0.90
2017-12-17T14:10:44.639Z,0.90
2017-12-17T14:13:12.406Z,0.90
2017-12-17T14:15:40.286Z,0.90
2017-12-17T14:18:08.027Z,0.80
2017-12-17T14:20:35.845Z,0.80
2017-12-17T14:23:03.611Z,0.70
2017-12-17T14:25:31.443Z,0.70
2017-12-17T14:27:59.924Z,0.80
2017-12-17T14:30:28.532Z,0.80
2017-12-17T14:32:56.264Z,0.70
2017-12-17T14:35:24.834Z,0.80
2017-12-17T14:37:52.685Z,0.80
2017-12-17T14:40:22.339Z,0.80
2017-12-17T14:42:51.027Z,0.80
2017-12-17T14:45:19.000Z,0.80
2017-12-17T14:47:47.049Z,0.80
2017-12-17T14:50:14.902Z,0.80
2017-12-17T14:52:43.653Z,0.80
2017-12-17T14:55:11.385Z,0.80
2017-12-17T14:57:39.191Z,0.80
2017-12-17T15:00:06.996Z,0.90
2017-12-17T15:02:34.723Z,0.80
2017-12-17T15:05:02.470Z,0.80
2017-12-17T15:07:30.545Z,0.80
2017-12-17T15:09:58.332Z,0.80
2017-12-17T15:12:27.379Z,0.80
2017-12-17T15:14:55.316Z,0.70
2017-12-17T15:17:23.091Z,0.70
2017-12-17T15:19:51.809Z,0.60
2017-12-17T15:22:19.701Z,0.60
2017-12-17T15:24:48.582Z,0.70
2017-12-17T15:27:17.254Z,0.60
2017-12-17T15:29:45.187Z,0.60
2017-12-17T15:32:13.105Z,0.60
2017-12-17T15:34:41.987Z,0.70
2017-12-17T15:37:10.987Z,0.70
2017-12-17T15:39:38.994Z,0.70
2017-12-17T15:42:07.115Z,0.60
2017-12-17T15:44:35.443Z,0.60
2017-12-17T15:47:04.146Z,0.60
2017-12-17T15:49:31.910Z,0.60
2017-12-17T15:52:00.217Z,0.60
2017-12-17T15:54:28.034Z,0.60
2017-12-17T15:56:55.888Z,0.50
2017-12-17T15:59:23.747Z,0.50
2017-12-17T16:01:51.558Z,0.50
2017-12-17T16:04:19.764Z,0.50
2017-12-17T16:06:47.651Z,0.50
2017-12-17T16:09:15.603Z,0.40
2017-12-17T16:11:43.483Z,0.40
2017-12-17T16:14:11.563Z,0.30
2017-12-17T16:16:39.419Z,0.30
2017-12-17T16:19:07.240Z,0.40
2017-12-17T16:21:35.136Z,0.40
2017-12-17T16:24:02.926Z,0.30
2017-12-17T16:26:31.247Z,0.30
2017-12-17T16:29:00.987Z,0.20
2017-12-17T16:31:28.724Z,0.20
2017-12-17T16:33:57.187Z,0.20
2017-12-17T16:36:25.009Z,0.30
2017-12-17T16:38:52.788Z,0.20
2017-12-17T16:41:20.453Z,0.20
2017-12-17T16:43:48.175Z,0.30
2017-12-17T16:46:15.920Z,0.30
2017-12-17T16:48:44.463Z,0.30
2017-12-17T16:51:12.350Z,0.30
2017-12-17T16:53:40.969Z,0.20
2017-12-17T16:56:08.666Z,0.20
2017-12-17T16:58:36.443Z,0.20
2017-12-17T17:01:04.140Z,0.30
2017-12-17T17:03:31.856Z,0.20
2017-12-17T17:05:59.768Z,0.20
2017-12-17T17:08:28.227Z,0.20
2017-12-17T17:10:56.671Z,0.20
2017-12-17T17:13:24.648Z,0.20
2017-12-17T17:15:52.276Z,0.20
2017-12-17T17:18:20.008Z,0.20
2017-12-17T17:20:47.827Z,0.10
2017-12-17T17:23:15.759Z,0.10
2017-12-17T17:25:43.552Z,0.10
2017-12-17T17:28:11.470Z,0.20
2017-12-17T17:30:39.302Z,0.20
2017-12-17T17:33:07.270Z,0.10
2017-12-17T17:35:36.059Z,0.10
2017-12-17T17:38:03.980Z,0.10
2017-12-17T17:43:06.020Z,0.10
2017-12-17T17:45:33.667Z,0.10
2017-12-17T17:48:02.751Z,0.10
2017-12-17T17:50:30.436Z,0.10
2017-12-17T17:52:58.120Z,0.10
2017-12-17T17:55:25.799Z,0.10
2017-12-17T17:57:53.494Z,0.10
2017-12-17T18:00:21.969Z,0.10
2017-12-17T18:02:49.640Z,0.10
2017-12-17T18:05:17.387Z,0.10
2017-12-17T18:07:45.018Z,0.10
2017-12-17T18:10:12.726Z,0.10
2017-12-17T18:12:41.183Z,0.10
2017-12-17T18:15:21.333Z,0.10
2017-12-17T18:17:58.607Z,0.10
2017-12-17T18:20:27.685Z,0.10
2017-12-17T18:22:55.622Z,0.10
2017-12-17T18:25:23.418Z,0.10
2017-12-17T18:27:51.717Z,0.10
2017-12-17T18:30:20.957Z,0.10
2017-12-17T18:32:48.896Z,0.10
2017-12-17T18:35:16.807Z,0.10
2017-12-17T18:37:44.756Z,0.00
2017-12-17T18:40:12.667Z,0.10
2017-12-17T18:42:41.282Z,0.10
2017-12-17T18:45:09.219Z,0.10
2017-12-17T18:47:37.031Z,0.10
2017-12-17T18:50:04.869Z,0.10
2017-12-17T18:52:32.810Z,0.00
2017-12-17T18:55:00.683Z,0.10
2017-12-17T18:57:28.522Z,0.10
2017-12-17T18:59:56.543Z,0.10
2017-12-17T19:02:25.152Z,0.10
2017-12-17T19:04:53.007Z,0.10
2017-12-17T19:07:21.080Z,0.10
2017-12-17T19:09:48.989Z,0.10
2017-12-17T19:12:16.839Z,0.10
2017-12-17T19:14:44.770Z,0.10
2017-12-17T19:17:12.609Z,0.10
2017-12-17T19:19:40.340Z,0.10
2017-12-17T19:22:08.062Z,0.10
2017-12-17T19:24:35.749Z,0.10
2017-12-17T19:27:03.416Z,0.10
2017-12-17T19:29:31.128Z,0.10
2017-12-17T19:31:58.894Z,0.10
2017-12-17T19:34:26.600Z,0.10
2017-12-17T19:36:54.296Z,0.10
2017-12-17T19:39:23.745Z,0.10
2017-12-17T19:41:51.398Z,0.10
2017-12-17T19:44:19.187Z,0.10
2017-12-17T19:46:47.016Z,0.10
2017-12-17T19:49:14.789Z,0.10
2017-12-17T19:51:42.549Z,0.10
2017-12-17T19:54:10.598Z,0.10
2017-12-17T19:56:38.456Z,0.10
2017-12-17T19:59:06.394Z,0.10
2017-12-17T20:01:34.227Z,0.10
2017-12-17T20:04:01.937Z,0.10
2017-12-17T20:06:30.615Z,0.10
2017-12-17T20:08:58.301Z,0.10
2017-12-17T20:11:27.149Z,0.10
2017-12-17T20:13:54.973Z,0.00
2017-12-17T20:16:22.681Z,0.00
2017-12-17T20:18:50.381Z,0.00
2017-12-17T20:21:18.228Z,0.10
2017-12-17T20:23:45.968Z,0.00
2017-12-17T20:26:13.635Z,0.10
2017-12-17T20:28:41.361Z,0.10
2017-12-17T20:31:09.146Z,0.10
2017-12-17T20:33:36.874Z,0.10
2017-12-17T20:36:04.749Z,0.10
2017-12-17T20:38:32.511Z,0.10
2017-12-17T20:41:00.139Z,0.00
2017-12-17T20:43:27.831Z,0.00
2017-12-17T20:45:55.476Z,0.00
2017-12-17T20:48:23.188Z,0.00
2017-12-17T20:50:50.987Z,0.00
2017-12-17T20:53:18.777Z,0.00
2017-12-17T20:55:46.604Z,0.00
2017-12-17T20:58:14.495Z,0.00
2017-12-17T21:00:42.361Z,-0.10
2017-12-17T21:03:10.072Z,-0.10
2017-12-17T21:05:38.032Z,-0.10
2017-12-17T21:08:05.767Z,-0.20
2017-12-17T21:10:33.545Z,-0.10
2017-12-17T21:13:01.549Z,-0.10
2017-12-17T21:15:29.276Z,-0.20
2017-12-17T21:17:57.025Z,-0.10
2017-12-17T21:20:24.877Z,-0.10
2017-12-17T21:22:52.662Z,-0.20
2017-12-17T21:25:20.422Z,-0.20
2017-12-17T21:27:48.301Z,-0.20
2017-12-17T21:30:17.280Z,-0.20
2017-12-17T21:32:45.262Z,-0.20
2017-12-17T21:35:14.079Z,-0.20
2017-12-17T21:37:42.650Z,-0.20
2017-12-17T21:40:11.260Z,-0.20
2017-12-17T21:42:39.702Z,-0.20
2017-12-17T21:45:08.213Z,-0.10
2017-12-17T21:47:35.838Z,-0.20
2017-12-17T21:50:03.617Z,-0.10
2017-12-17T21:52:32.155Z,-0.10
2017-12-17T21:54:59.967Z,-0.10
2017-12-17T21:57:27.868Z,-0.10
2017-12-17T21:59:55.540Z,-0.10
2017-12-17T22:02:23.231Z,-0.10
2017-12-17T22:04:52.020Z,0.00
2017-12-17T22:07:19.699Z,0.00
2017-12-17T22:09:47.344Z,0.10
2017-12-17T22:12:15.782Z,0.10
2017-12-17T22:14:43.559Z,0.10
2017-12-17T22:17:12.221Z,0.10
2017-12-17T22:19:40.044Z,0.00
2017-12-17T22:22:07.731Z,0.10
2017-12-17T22:24:35.389Z,0.10
2017-12-17T22:27:03.068Z,0.10
2017-12-17T22:29:30.971Z,0.10
2017-12-17T22:31:58.604Z,0.10
2017-12-17T22:34:26.303Z,0.00
2017-12-17T22:36:54.716Z,-0.10
2017-12-17T22:39:22.369Z,-0.10
2017-12-17T22:41:50.066Z,-0.10
2017-12-17T22:44:17.763Z,-0.10
2017-12-17T22:46:46.220Z,-0.10
2017-12-17T22:49:14.019Z,-0.10
2017-12-17T22:51:41.767Z,-0.10
2017-12-17T22:54:09.507Z,-0.10
2017-12-17T22:56:37.333Z,0.00
2017-12-17T22:59:05.270Z,-0.10
2017-12-17T23:01:33.799Z,-0.10
2017-12-17T23:04:01.642Z,-0.20
2017-12-17T23:06:29.417Z,-0.10
2017-12-17T23:08:57.220Z,-0.20
2017-12-17T23:11:25.067Z,-0.20
2017-12-17T23:13:52.856Z,-0.30
2017-12-17T23:16:21.347Z,-0.40
2017-12-17T23:18:49.918Z,-0.40
2017-12-17T23:21:20.391Z,-0.40
2017-12-17T23:23:48.538Z,-0.40
2017-12-17T23:26:16.584Z,-0.40
2017-12-17T23:28:45.158Z,-0.40
2017-12-17T23:31:13.590Z,-0.40
2017-12-17T23:33:41.462Z,-0.40
2017-12-17T23:36:09.140Z,-0.40
2017-12-17T23:38:36.783Z,-0.40
2017-12-17T23:41:04.532Z,-0.40
2017-12-17T23:43:32.206Z,-0.30
2017-12-17T23:45:59.849Z,-0.30
2017-12-17T23:48:27.601Z,-0.40
2017-12-17T23:50:55.296Z,-0.30
2017-12-17T23:53:23.024Z,-0.30
2017-12-17T23:55:50.749Z,-0.30
2017-12-17T23:58:18.392Z,-0.30
